createdAt,value
2019-06-25T02:06:41.730Z,4.22
2019-06-25T02:07:47.124Z,4.28
2019-06-25T02:08:52.185Z,4.90
2019-06-25T02:09:57.880Z,4.00
2019-06-25T02:11:02.743Z,4.17
2019-06-25T02:12:10.064Z,5.17
2019-06-25T02:13:14.882Z,4.42
2019-06-25T02:14:20.188Z,4.35
2019-06-25T02:15:26.504Z,3.92
2019-06-25T02:16:34.051Z,4.35
2019-06-25T02:17:38.957Z,4.47
2019-06-25T02:18:44.965Z,4.55
2019-06-25T02:19:50.922Z,5.22
2019-06-25T02:20:56.289Z,5.00
2019-06-25T02:22:01.195Z,5.78
2019-06-25T02:23:06.913Z,5.58
2019-06-25T02:24:13.630Z,5.22
2019-06-25T02:25:20.032Z,5.47
2019-06-25T02:26:28.113Z,5.08
2019-06-25T02:27:34.342Z,4.60
2019-06-25T02:28:43.861Z,5.37
2019-06-25T02:29:50.827Z,4.75
2019-06-25T02:32:38.885Z,4.90
2019-06-25T02:33:44.174Z,4.80
2019-06-25T02:34:53.677Z,5.55
2019-06-25T02:35:59.431Z,5.60
2019-06-25T02:37:04.801Z,4.30
2019-06-25T02:38:09.555Z,4.47
2019-06-25T02:39:14.886Z,5.22
2019-06-25T02:40:20.135Z,4.42
2019-06-25T02:41:25.864Z,4.42
2019-06-25T02:44:23.320Z,4.78
2019-06-25T02:45:28.929Z,5.40
2019-06-25T02:46:34.212Z,4.85
2019-06-25T02:47:40.258Z,4.28
2019-06-25T02:48:46.301Z,4.40
2019-06-25T02:49:52.871Z,4.75
2019-06-25T02:50:58.581Z,4.28
2019-06-25T02:52:04.117Z,5.42
2019-06-25T02:53:09.019Z,4.62
2019-06-25T02:54:14.771Z,4.60
2019-06-25T02:55:20.604Z,4.40
2019-06-25T02:56:33.506Z,4.80
2019-06-25T02:57:38.314Z,4.60
2019-06-25T02:58:44.364Z,4.53
2019-06-25T02:59:49.261Z,4.33
2019-06-25T03:00:57.077Z,5.00
2019-06-25T03:02:02.858Z,4.55
2019-06-25T03:03:08.174Z,4.97
2019-06-25T03:04:15.594Z,5.05
2019-06-25T03:05:22.278Z,5.10
2019-06-25T03:06:27.563Z,5.12
2019-06-25T03:07:33.060Z,5.00
2019-06-25T03:08:38.189Z,5.47
2019-06-25T03:09:44.279Z,5.17
2019-06-25T03:10:50.330Z,4.65
2019-06-25T03:11:56.662Z,4.85
2019-06-25T03:13:02.325Z,4.42
2019-06-25T03:14:07.929Z,4.40
2019-06-25T03:15:12.974Z,4.70
2019-06-25T03:16:19.736Z,4.70
2019-06-25T03:17:24.501Z,5.12
2019-06-25T03:18:30.383Z,5.97
2019-06-25T03:19:35.817Z,5.15
2019-06-25T03:20:41.855Z,5.95
2019-06-25T03:21:46.863Z,5.45
2019-06-25T03:22:52.517Z,5.87
2019-06-25T03:23:58.345Z,6.15
2019-06-25T03:25:04.074Z,5.28
2019-06-25T03:26:09.101Z,5.75
2019-06-25T03:27:15.385Z,5.95
2019-06-25T03:28:20.101Z,5.83
2019-06-25T03:29:25.461Z,5.42
2019-06-25T03:30:30.427Z,5.33
2019-06-25T03:32:03.095Z,6.00
2019-06-25T03:32:42.520Z,6.03
2019-06-25T03:33:48.104Z,5.08
2019-06-25T03:34:52.928Z,6.03
2019-06-25T03:35:58.328Z,6.55
2019-06-25T03:37:03.174Z,5.72
2019-06-25T03:38:08.746Z,5.75
2019-06-25T03:39:13.900Z,6.60
2019-06-25T03:40:23.789Z,5.20
2019-06-25T03:41:28.857Z,4.35
2019-06-25T03:42:34.779Z,5.72
2019-06-25T03:43:39.622Z,5.40
2019-06-25T03:44:45.389Z,5.80
2019-06-25T03:45:50.544Z,5.03
2019-06-25T03:46:57.629Z,4.33
2019-06-25T03:48:02.403Z,5.30
2019-06-25T03:49:08.061Z,4.90
2019-06-25T03:50:13.183Z,5.45
2019-06-25T03:51:19.512Z,5.42
2019-06-25T03:52:24.769Z,5.10
2019-06-25T03:53:30.187Z,5.00
2019-06-25T03:54:35.564Z,5.60
2019-06-25T03:55:41.116Z,5.35
2019-06-25T03:56:46.246Z,4.97
2019-06-25T03:57:55.758Z,5.40
2019-06-25T03:59:01.176Z,4.80
2019-06-25T04:00:07.117Z,5.28
2019-06-25T04:01:12.367Z,4.95
2019-06-25T04:02:18.132Z,5.00
2019-06-25T04:03:23.908Z,4.87
2019-06-25T04:04:30.409Z,5.92
2019-06-25T04:05:35.292Z,5.08
2019-06-25T04:06:42.326Z,5.35
2019-06-25T04:07:47.567Z,4.97
2019-06-25T04:08:53.034Z,4.67
2019-06-25T04:09:58.437Z,5.97
2019-06-25T04:11:04.040Z,6.42
2019-06-25T04:12:10.490Z,6.65
2019-06-25T04:13:15.861Z,6.78
2019-06-25T04:14:20.594Z,5.87
2019-06-25T04:15:27.325Z,5.97
2019-06-25T04:16:36.103Z,5.40
2019-06-25T04:17:41.939Z,6.65
2019-06-25T04:18:46.751Z,6.05
2019-06-25T04:19:52.319Z,5.70
2019-06-25T04:20:57.234Z,5.47
2019-06-25T04:22:02.725Z,6.03
2019-06-25T04:23:08.782Z,6.15
2019-06-25T04:24:14.144Z,4.95
2019-06-25T04:25:19.876Z,5.80
2019-06-25T04:26:25.314Z,6.08
2019-06-25T04:27:30.925Z,5.92
2019-06-25T04:28:36.756Z,4.33
2019-06-25T04:29:41.634Z,4.50
2019-06-25T04:30:48.932Z,4.78
2019-06-25T04:31:54.800Z,5.25
2019-06-25T04:33:02.718Z,5.58
2019-06-25T04:34:07.606Z,4.80
2019-06-25T04:35:15.259Z,4.53
2019-06-25T04:36:42.972Z,6.12
2019-06-25T04:37:48.628Z,4.95
2019-06-25T04:38:53.975Z,5.45
2019-06-25T04:40:24.426Z,4.90
2019-06-25T04:42:10.322Z,5.00
2019-06-25T04:43:17.353Z,5.35
2019-06-25T04:44:22.404Z,4.30
2019-06-25T04:45:29.304Z,4.55
2019-06-25T04:46:34.653Z,5.22
2019-06-25T04:47:40.106Z,5.12
2019-06-25T04:48:44.811Z,6.22
2019-06-25T04:49:50.255Z,5.50
2019-06-25T04:50:57.088Z,5.25
2019-06-25T04:52:02.890Z,5.33
2019-06-25T04:53:08.490Z,5.70
2019-06-25T04:54:14.958Z,7.00
2019-06-25T04:55:19.861Z,5.08
2019-06-25T04:56:25.395Z,7.80
2019-06-25T04:57:30.943Z,5.75
2019-06-25T04:58:36.584Z,5.22
2019-06-25T04:59:41.625Z,6.28
2019-06-25T05:00:47.286Z,5.65
2019-06-25T05:01:53.007Z,5.97
2019-06-25T05:02:59.304Z,6.75
2019-06-25T05:04:16.698Z,5.58
2019-06-25T05:05:20.791Z,6.95
2019-06-25T05:06:26.448Z,5.30
2019-06-25T05:07:33.164Z,5.15
2019-06-25T05:08:40.065Z,5.10
2019-06-25T05:09:45.526Z,5.12
2019-06-25T05:10:50.457Z,4.72
2019-06-25T05:11:55.983Z,4.72
2019-06-25T05:13:00.877Z,4.85
2019-06-25T05:14:06.780Z,5.55
2019-06-25T05:15:12.312Z,5.42
2019-06-25T05:16:17.861Z,5.70
2019-06-25T05:17:22.886Z,4.70
2019-06-25T05:18:28.428Z,4.35
2019-06-25T05:19:33.698Z,5.15
2019-06-25T05:20:39.817Z,4.35
2019-06-25T05:21:45.055Z,5.20
2019-06-25T05:22:51.236Z,5.70
2019-06-25T05:23:57.495Z,4.83
2019-06-25T05:25:16.012Z,4.65
2019-06-25T05:26:22.554Z,4.90
2019-06-25T05:27:28.265Z,5.92
2019-06-25T05:28:33.864Z,4.65
2019-06-25T05:29:46.335Z,5.55
2019-06-25T05:30:51.899Z,5.60
2019-06-25T05:31:57.382Z,6.17
2019-06-25T05:33:07.761Z,5.40
2019-06-25T05:34:13.693Z,5.92
2019-06-25T05:35:18.818Z,4.87
2019-06-25T05:36:42.167Z,7.20
2019-06-25T05:37:52.515Z,6.70
2019-06-25T05:39:13.250Z,5.42
2019-06-25T05:40:19.319Z,4.80
2019-06-25T05:41:27.007Z,4.53
2019-06-25T05:42:34.490Z,4.87
2019-06-25T05:43:40.490Z,5.15
2019-06-25T05:44:45.420Z,5.58
2019-06-25T05:45:53.201Z,5.75
2019-06-25T05:46:58.221Z,5.70
2019-06-25T05:48:04.470Z,5.53
2019-06-25T05:49:12.570Z,7.55
2019-06-25T05:50:33.666Z,5.80
2019-06-25T05:51:42.621Z,8.05
2019-06-25T05:52:48.578Z,7.55
2019-06-25T05:53:54.905Z,5.58
2019-06-25T05:55:00.555Z,5.60
2019-06-25T05:56:05.693Z,6.25
2019-06-25T05:57:11.386Z,5.33
2019-06-25T05:58:16.343Z,5.83
2019-06-25T05:59:22.078Z,5.03
2019-06-25T06:00:27.858Z,5.15
2019-06-25T06:01:41.648Z,5.85
2019-06-25T06:02:47.140Z,5.15
2019-06-25T06:03:52.643Z,4.95
2019-06-25T06:05:00.622Z,5.20
2019-06-25T06:06:06.844Z,6.08
2019-06-25T06:07:12.226Z,5.78
2019-06-25T06:08:19.415Z,5.97
2019-06-25T06:09:27.655Z,6.08
2019-06-25T06:10:33.167Z,5.92
2019-06-25T06:11:39.567Z,4.92
2019-06-25T06:12:45.292Z,6.03
2019-06-25T06:13:50.380Z,5.25
2019-06-25T06:14:56.065Z,5.08
2019-06-25T06:16:10.424Z,5.62
2019-06-25T06:17:19.076Z,5.95
2019-06-25T06:18:50.951Z,5.42
2019-06-25T06:19:56.644Z,5.42
2019-06-25T06:21:03.710Z,6.15
2019-06-25T06:22:09.291Z,5.55
2019-06-25T06:23:19.486Z,5.58
2019-06-25T06:24:27.402Z,5.60
2019-06-25T06:25:32.714Z,4.72
2019-06-25T06:26:46.395Z,5.10
2019-06-25T06:27:51.544Z,6.92
2019-06-25T06:29:01.193Z,8.23
2019-06-25T06:30:07.048Z,7.08
2019-06-25T06:31:17.712Z,6.33
2019-06-25T06:32:19.603Z,5.90
2019-06-25T06:33:36.279Z,6.53
2019-06-25T06:34:35.520Z,5.17
2019-06-25T06:35:42.345Z,5.12
2019-06-25T06:36:48.567Z,5.67
2019-06-25T06:37:53.977Z,5.83
2019-06-25T06:39:01.569Z,5.50
2019-06-25T06:40:07.792Z,5.65
2019-06-25T06:41:18.100Z,6.67
2019-06-25T06:42:26.379Z,5.97
2019-06-25T06:43:31.471Z,5.67
2019-06-25T06:44:40.871Z,7.95
2019-06-25T06:45:45.892Z,5.15
2019-06-25T06:46:52.987Z,5.75
2019-06-25T06:48:00.501Z,6.15
2019-06-25T06:49:16.019Z,5.22
2019-06-25T06:50:21.288Z,7.40
2019-06-25T06:51:27.461Z,7.53
2019-06-25T06:52:35.130Z,6.87
2019-06-25T06:53:41.178Z,7.15
2019-06-25T06:54:49.525Z,6.70
2019-06-25T06:56:12.949Z,6.20
2019-06-25T06:57:20.530Z,4.65
2019-06-25T06:59:58.874Z,4.65
2019-06-25T07:01:16.936Z,4.97
2019-06-25T07:02:29.751Z,5.20
2019-06-25T07:03:48.871Z,8.15
2019-06-25T07:04:42.320Z,8.20
2019-06-25T07:05:53.690Z,7.12
2019-06-25T07:06:58.879Z,7.47
2019-06-25T07:08:06.396Z,6.15
2019-06-25T07:09:13.658Z,5.62
2019-06-25T07:10:23.399Z,7.05
2019-06-25T07:11:42.085Z,6.45
2019-06-25T07:12:54.442Z,5.53
2019-06-25T07:14:07.440Z,5.78
2019-06-25T07:15:17.150Z,4.35
2019-06-25T07:16:23.252Z,4.30
2019-06-25T07:17:29.890Z,4.50
2019-06-25T07:18:35.104Z,4.92
2019-06-25T07:19:43.009Z,4.95
2019-06-25T07:20:48.595Z,4.40
2019-06-25T07:21:54.887Z,4.50
2019-06-25T07:41:38.767Z,5.00
2019-06-25T07:42:44.612Z,5.10
2019-06-25T07:43:49.504Z,4.85
2019-06-25T07:44:56.111Z,5.25
2019-06-25T07:46:02.457Z,5.08
2019-06-25T07:47:08.460Z,5.00
2019-06-25T07:48:13.799Z,5.67
2019-06-25T07:49:22.960Z,5.72
2019-06-25T07:50:31.526Z,5.25
2019-06-25T07:51:36.745Z,5.12
2019-06-25T07:52:43.209Z,5.78
2019-06-25T07:53:48.748Z,4.85
2019-06-25T07:54:53.559Z,4.90
2019-06-25T07:55:58.829Z,5.05
2019-06-25T07:57:03.783Z,4.90
2019-06-25T07:58:09.229Z,5.78
2019-06-25T07:59:13.932Z,6.08
2019-06-25T08:00:20.197Z,5.92
2019-06-25T08:01:24.956Z,5.12
2019-06-25T08:02:30.725Z,5.22
2019-06-25T08:03:35.494Z,5.60
2019-06-25T08:04:41.124Z,5.45
2019-06-25T08:05:45.789Z,6.85
2019-06-25T08:06:51.611Z,6.95
2019-06-25T08:07:57.297Z,5.97
2019-06-25T08:09:02.946Z,6.12
2019-06-25T08:10:08.809Z,7.22
2019-06-25T08:11:17.168Z,6.10
2019-06-25T08:12:23.641Z,6.47
2019-06-25T08:13:31.034Z,5.28
2019-06-25T08:14:36.194Z,6.80
2019-06-25T08:15:41.558Z,4.78
2019-06-25T08:16:48.773Z,6.00
2019-06-25T08:18:11.897Z,5.40
2019-06-25T08:19:18.255Z,4.85
2019-06-25T08:20:24.223Z,5.20
2019-06-25T08:21:29.206Z,4.97
2019-06-25T08:22:40.569Z,5.08
2019-06-25T08:25:16.580Z,5.25
2019-06-25T08:26:24.260Z,4.50
2019-06-25T08:27:29.662Z,6.60
2019-06-25T08:28:36.368Z,5.47
2019-06-25T08:29:41.733Z,6.80
2019-06-25T08:30:46.652Z,5.80
2019-06-25T08:32:01.721Z,5.30
2019-06-25T08:34:20.305Z,5.28
2019-06-25T08:35:28.780Z,5.10
2019-06-25T08:37:00.530Z,5.62
2019-06-25T08:38:07.678Z,5.17
2019-06-25T08:39:13.411Z,6.17
2019-06-25T08:40:20.559Z,6.08
2019-06-25T08:41:28.324Z,5.67
2019-06-25T08:42:33.885Z,6.65
2019-06-25T08:43:45.596Z,7.40
2019-06-25T08:44:51.141Z,5.15
2019-06-25T08:45:59.402Z,6.55
2019-06-25T08:47:41.729Z,5.50
2019-06-25T08:48:49.030Z,5.15
2019-06-25T08:49:54.545Z,5.65
2019-06-25T08:51:00.305Z,5.67
2019-06-25T08:52:05.428Z,5.30
2019-06-25T08:53:24.690Z,5.30
2019-06-25T08:54:35.831Z,5.10
2019-06-25T08:57:13.146Z,5.17
2019-06-25T09:00:32.477Z,6.53
2019-06-25T09:01:38.177Z,6.70
2019-06-25T09:02:43.704Z,5.10
2019-06-25T09:03:49.435Z,5.28
2019-06-25T09:04:58.704Z,5.37
2019-06-25T09:06:01.686Z,5.97
2019-06-25T09:07:06.691Z,6.75
2019-06-25T09:08:27.637Z,6.10
2019-06-25T09:09:32.588Z,5.83
2019-06-25T09:10:44.821Z,5.90
2019-06-25T09:11:57.305Z,5.87
2019-06-25T09:13:03.846Z,4.67
2019-06-25T09:15:18.061Z,5.78
2019-06-25T09:16:25.649Z,6.72
2019-06-25T09:17:41.027Z,5.55
2019-06-25T09:18:46.949Z,5.25
2019-06-25T09:19:52.532Z,5.65
2019-06-25T09:20:57.899Z,5.40
2019-06-25T09:22:03.041Z,6.05
2019-06-25T09:23:09.042Z,8.33
2019-06-25T09:24:15.639Z,7.87
2019-06-25T09:25:22.497Z,6.08
2019-06-25T09:26:31.133Z,6.92
2019-06-25T09:27:39.253Z,7.08
2019-06-25T09:28:53.771Z,7.35
2019-06-25T09:30:30.224Z,5.50
2019-06-25T09:31:35.138Z,7.33
2019-06-25T09:32:40.937Z,6.85
2019-06-25T09:33:46.212Z,7.47
2019-06-25T09:34:51.626Z,6.08
2019-06-25T09:35:57.703Z,6.60
2019-06-25T09:37:06.898Z,5.90
2019-06-25T09:38:13.065Z,6.65
2019-06-25T09:39:18.777Z,5.97
2019-06-25T09:40:22.222Z,5.60
2019-06-25T09:41:32.631Z,5.92
2019-06-25T09:42:35.831Z,5.50
2019-06-25T09:43:39.779Z,6.00
2019-06-25T09:44:42.717Z,5.40
2019-06-25T09:45:49.746Z,5.58
2019-06-25T09:46:58.876Z,6.47
2019-06-25T09:48:08.063Z,7.47
2019-06-25T09:49:14.626Z,6.55
2019-06-25T09:50:20.245Z,6.90
2019-06-25T09:51:33.972Z,6.37
2019-06-25T09:52:41.438Z,5.75
2019-06-25T09:53:50.481Z,6.60
2019-06-25T09:55:02.261Z,6.72
2019-06-25T09:56:33.858Z,5.90
2019-06-25T09:57:42.496Z,6.22
2019-06-25T09:58:59.021Z,6.78
2019-06-25T10:00:20.612Z,6.10
2019-06-25T10:01:28.325Z,7.25
2019-06-25T10:02:32.714Z,7.95
2019-06-25T10:03:37.681Z,7.03
2019-06-25T10:04:43.441Z,7.12
2019-06-25T10:05:55.055Z,8.23
2019-06-25T10:07:00.500Z,7.10
2019-06-25T10:08:08.080Z,7.70
2019-06-25T10:09:23.530Z,6.70
2019-06-25T10:10:29.840Z,7.05
2019-06-25T10:11:38.948Z,7.30
2019-06-25T10:12:43.350Z,7.62
2019-06-25T10:13:53.743Z,7.15
2019-06-25T10:14:57.628Z,7.08
2019-06-25T10:16:03.081Z,7.50
2019-06-25T10:17:13.360Z,8.30
2019-06-25T10:18:18.842Z,7.47
2019-06-25T10:19:30.681Z,5.90
2019-06-25T10:20:41.062Z,5.15
2019-06-25T10:21:48.552Z,6.50
2019-06-25T10:23:35.699Z,6.15
2019-06-25T10:25:02.969Z,5.67
2019-06-25T10:26:16.132Z,6.97
2019-06-25T10:28:28.695Z,5.22
2019-06-25T10:29:26.249Z,7.55
2019-06-25T10:31:16.569Z,5.40
2019-06-25T10:32:23.719Z,7.37
2019-06-25T10:34:18.102Z,6.45
2019-06-25T10:35:47.390Z,6.85
2019-06-25T10:36:48.187Z,6.25
2019-06-25T10:37:54.048Z,7.72
2019-06-25T10:38:58.875Z,8.18
2019-06-25T10:40:05.461Z,7.28
2019-06-25T10:41:10.191Z,6.37
2019-06-25T10:42:15.783Z,6.80
2019-06-25T10:43:20.616Z,6.70
2019-06-25T10:44:27.357Z,6.67
2019-06-25T10:45:34.736Z,5.08
2019-06-25T10:46:41.147Z,5.78
2019-06-25T10:47:47.493Z,6.47
2019-06-25T10:48:53.597Z,6.55
2019-06-25T10:50:00.230Z,6.28
2019-06-25T10:51:17.925Z,6.50
2019-06-25T10:52:24.465Z,6.15
2019-06-25T10:55:20.082Z,4.45
2019-06-25T10:56:28.517Z,3.85
2019-06-25T10:57:34.066Z,4.05
2019-06-25T10:58:39.616Z,3.85
2019-06-25T10:59:55.146Z,4.50
2019-06-25T11:01:02.944Z,3.47
2019-06-25T11:02:07.924Z,3.45
2019-06-25T11:03:13.874Z,3.15
2019-06-25T11:04:32.916Z,2.97
2019-06-25T11:06:20.354Z,2.93
2019-06-25T11:07:25.306Z,3.20
2019-06-25T11:08:30.643Z,2.87
2019-06-25T11:10:19.092Z,3.40
2019-06-25T11:11:37.228Z,3.57
2019-06-25T11:13:06.197Z,2.80
2019-06-25T11:14:11.788Z,3.00
2019-06-25T11:15:16.989Z,3.30
2019-06-25T11:16:22.461Z,3.40
2019-06-25T11:17:30.710Z,2.80
2019-06-25T11:21:14.003Z,1.97
2019-06-25T11:22:32.228Z,2.50
2019-06-25T11:23:45.714Z,2.73
2019-06-25T11:24:51.913Z,2.67
2019-06-25T11:26:23.773Z,3.03
2019-06-25T11:27:30.570Z,3.10
2019-06-25T11:28:41.523Z,2.87
2019-06-25T11:29:51.146Z,2.60
2019-06-25T11:34:11.887Z,2.43
2019-06-25T11:35:28.358Z,2.20
2019-06-25T11:36:49.888Z,2.30
2019-06-25T11:38:01.631Z,2.60
2019-06-25T11:39:13.450Z,2.63
2019-06-25T11:40:32.418Z,3.10
2019-06-25T11:41:51.954Z,3.10
2019-06-25T11:42:58.404Z,3.17
2019-06-25T11:44:04.298Z,2.37
2019-06-25T11:45:24.968Z,2.70
2019-06-25T11:46:31.256Z,2.30
2019-06-25T11:48:03.522Z,1.90
2019-06-25T11:49:08.258Z,2.00
2019-06-25T11:50:17.469Z,2.50
2019-06-25T11:51:22.451Z,2.20
2019-06-25T11:52:28.322Z,2.10
2019-06-25T11:53:38.351Z,2.10
2019-06-25T11:54:58.853Z,2.00
2019-06-25T11:56:19.008Z,3.10
2019-06-25T11:57:44.763Z,2.70
2019-06-25T11:58:50.848Z,3.20
2019-06-25T11:59:59.378Z,2.63
2019-06-25T12:01:06.180Z,2.83
2019-06-25T12:02:21.522Z,3.23
2019-06-25T12:03:30.193Z,2.63
2019-06-25T12:04:36.681Z,3.07
2019-06-25T12:05:41.979Z,2.90
2019-06-25T12:06:56.755Z,2.90
2019-06-25T12:08:02.923Z,3.03
2019-06-25T12:09:16.873Z,3.20
2019-06-25T12:10:23.031Z,2.73
2019-06-25T12:11:28.336Z,2.70
2019-06-25T12:12:33.729Z,3.30
2019-06-25T12:13:38.988Z,2.70
2019-06-25T12:14:44.496Z,2.77
2019-06-25T12:15:50.181Z,3.47
2019-06-25T12:16:59.875Z,3.60
2019-06-25T12:18:06.845Z,2.97
2019-06-25T12:19:15.512Z,4.07
2019-06-25T12:20:20.877Z,3.20
2019-06-25T12:21:27.327Z,3.57
2019-06-25T12:22:33.088Z,3.80
2019-06-25T12:23:38.029Z,2.90
2019-06-25T12:24:43.363Z,3.30
2019-06-25T12:25:48.552Z,3.30
2019-06-25T12:26:56.610Z,4.30
2019-06-25T12:28:01.570Z,3.57
2019-06-25T12:29:11.485Z,3.40
2019-06-25T12:30:19.519Z,4.20
2019-06-25T12:31:28.014Z,4.40
2019-06-25T12:32:36.214Z,4.28
2019-06-25T12:33:41.666Z,4.30
2019-06-25T12:34:46.433Z,5.05
2019-06-25T12:35:52.549Z,4.55
2019-06-25T12:37:08.939Z,4.17
2019-06-25T12:38:11.233Z,4.47
2019-06-25T12:39:16.092Z,4.75
2019-06-25T12:40:22.537Z,5.55
2019-06-25T12:41:31.156Z,3.90
2019-06-25T12:42:36.547Z,5.05
2019-06-25T12:43:41.793Z,5.75
2019-06-25T12:44:48.643Z,4.80
2019-06-25T12:45:55.200Z,5.00
2019-06-25T12:47:03.625Z,4.92
2019-06-25T12:48:16.424Z,4.67
2019-06-25T12:49:26.666Z,6.35
2019-06-25T12:50:52.760Z,5.90
2019-06-25T12:51:58.876Z,4.85
2019-06-25T12:53:07.027Z,5.40
2019-06-25T12:54:29.639Z,5.70
2019-06-25T12:55:39.089Z,4.58
2019-06-25T12:56:45.032Z,6.05
2019-06-25T12:57:50.582Z,6.12
2019-06-25T12:58:56.182Z,5.97
2019-06-25T13:00:04.355Z,5.40
2019-06-25T13:01:10.235Z,4.17
2019-06-25T13:02:23.706Z,5.45
2019-06-25T13:03:39.416Z,5.97
2019-06-25T13:04:44.236Z,5.83
2019-06-25T13:05:49.622Z,4.53
2019-06-25T13:06:54.999Z,4.80
2019-06-25T13:08:03.566Z,4.35
2019-06-25T13:09:09.394Z,5.22
2019-06-25T13:10:23.161Z,5.45
2019-06-25T13:11:29.133Z,5.00
2019-06-25T13:12:37.940Z,4.30
2019-06-25T13:13:43.206Z,4.62
2019-06-25T13:14:49.630Z,6.22
2019-06-25T13:15:54.968Z,5.75
2019-06-25T13:17:02.940Z,5.00
2019-06-25T13:18:08.968Z,6.05
2019-06-25T13:19:18.743Z,5.20
2019-06-25T13:20:24.033Z,5.60
2019-06-25T13:21:32.653Z,5.78
2019-06-25T13:22:38.118Z,5.40
2019-06-25T13:23:43.523Z,4.85
2019-06-25T13:24:51.026Z,4.33
2019-06-25T13:25:55.359Z,4.60
2019-06-25T13:27:00.370Z,4.90
2019-06-25T13:28:06.209Z,6.30
2019-06-25T13:29:11.054Z,6.40
2019-06-25T13:30:17.789Z,4.80
2019-06-25T13:31:22.502Z,5.95
2019-06-25T13:32:29.024Z,4.42
2019-06-25T13:33:35.713Z,6.72
2019-06-25T13:34:42.881Z,7.22
2019-06-25T13:35:48.873Z,7.05
2019-06-25T13:37:13.255Z,12.85
2019-06-25T13:38:18.022Z,8.13
2019-06-25T13:39:23.332Z,8.15
2019-06-25T13:40:59.417Z,6.30
2019-06-25T13:42:06.459Z,6.30
2019-06-25T13:43:14.505Z,5.70
2019-06-25T13:44:41.512Z,3.85
2019-06-25T13:45:47.164Z,5.00
2019-06-25T13:47:00.062Z,4.67
2019-06-25T13:48:11.771Z,4.80
2019-06-25T13:49:14.568Z,5.30
2019-06-25T13:50:22.708Z,4.22
2019-06-25T13:51:29.889Z,4.15
2019-06-25T13:52:35.025Z,4.30
2019-06-25T13:53:40.378Z,5.20
2019-06-25T13:54:46.147Z,5.60
2019-06-25T13:55:57.384Z,5.05
2019-06-25T13:57:08.711Z,4.45
2019-06-25T13:58:14.117Z,5.05
2019-06-25T13:59:19.107Z,4.40
2019-06-25T14:00:27.194Z,4.00
2019-06-25T14:01:33.737Z,4.65
2019-06-25T14:02:39.370Z,6.15
2019-06-25T14:03:46.473Z,5.25
2019-06-25T14:05:05.800Z,6.12
2019-06-25T14:06:10.662Z,5.70
2019-06-25T14:07:17.861Z,4.00
2019-06-25T14:08:22.724Z,3.47
2019-06-25T14:09:28.230Z,4.00
2019-06-25T14:10:33.993Z,3.83
2019-06-25T14:11:39.945Z,4.80
2019-06-25T14:12:45.259Z,4.75
2019-06-25T14:13:50.750Z,4.58
2019-06-25T14:15:00.768Z,5.50
2019-06-25T14:16:27.141Z,4.42
2019-06-25T14:17:32.562Z,4.15
2019-06-25T14:18:38.124Z,4.17
2019-06-25T14:19:42.997Z,4.70
2019-06-25T14:20:48.775Z,4.00
2019-06-25T14:21:53.851Z,4.87
2019-06-25T14:22:59.337Z,4.65
2019-06-25T14:24:04.693Z,4.10
2019-06-25T14:25:24.427Z,4.28
2019-06-25T14:26:34.384Z,3.65
2019-06-25T14:27:39.904Z,3.70
2019-06-25T14:28:45.114Z,3.75
2019-06-25T14:29:50.826Z,4.17
2019-06-25T14:30:55.644Z,2.92
2019-06-25T14:32:02.593Z,3.10
2019-06-25T14:33:07.599Z,3.65
2019-06-25T14:34:13.082Z,3.95
2019-06-25T14:35:19.240Z,4.40
2019-06-25T14:36:25.121Z,3.85
2019-06-25T14:37:30.642Z,4.17
2019-06-25T14:38:37.277Z,4.53
2019-06-25T14:39:42.169Z,4.22
2019-06-25T14:40:49.643Z,3.62
2019-06-25T14:41:54.545Z,3.50
2019-06-25T14:43:00.438Z,4.17
2019-06-25T14:44:05.726Z,3.75
2019-06-25T14:45:13.317Z,3.77
2019-06-25T14:46:18.267Z,4.05
2019-06-25T14:47:26.216Z,4.08
2019-06-25T14:48:31.336Z,3.70
2019-06-25T14:49:36.776Z,4.15
2019-06-25T14:50:42.388Z,3.67
2019-06-25T14:51:50.381Z,4.00
2019-06-25T14:52:57.969Z,4.10
2019-06-25T14:54:07.229Z,3.60
2019-06-25T14:55:12.732Z,3.83
2019-06-25T14:56:18.647Z,3.72
2019-06-25T14:57:23.720Z,4.65
2019-06-25T14:58:34.064Z,3.87
2019-06-25T14:59:40.573Z,3.42
2019-06-25T15:00:50.353Z,4.40
2019-06-25T15:01:54.536Z,4.55
2019-06-25T15:03:01.115Z,5.90
2019-06-25T15:04:14.726Z,8.33
2019-06-25T15:05:23.856Z,6.05
2019-06-25T15:06:33.585Z,5.75
2019-06-25T15:07:53.969Z,4.78
2019-06-25T15:09:03.010Z,4.00
2019-06-25T15:12:11.238Z,4.05
2019-06-25T15:13:31.226Z,4.30
2019-06-25T15:14:50.801Z,4.78
2019-06-25T15:15:58.354Z,5.08
2019-06-25T15:17:03.577Z,4.50
2019-06-25T15:18:23.645Z,5.20
2019-06-25T15:19:44.944Z,4.50
2019-06-25T15:21:02.967Z,4.00
2019-06-25T15:22:14.536Z,4.30
2019-06-25T15:23:28.867Z,3.83
2019-06-25T15:24:35.255Z,3.95
2019-06-25T15:25:43.015Z,3.87
2019-06-25T15:28:07.121Z,3.37
2019-06-25T15:29:19.497Z,4.55
2019-06-25T15:30:24.988Z,3.60
2019-06-25T15:31:43.423Z,4.10
2019-06-25T15:32:49.731Z,3.72
2019-06-25T15:33:57.256Z,3.65
2019-06-25T15:35:06.473Z,4.05
2019-06-25T15:36:10.848Z,4.45
2019-06-25T15:37:15.633Z,4.47
2019-06-25T15:38:22.125Z,4.90
2019-06-25T15:39:29.093Z,3.92
2019-06-25T15:40:36.076Z,4.50
2019-06-25T15:41:42.449Z,3.85
2019-06-25T15:42:48.090Z,4.85
2019-06-25T15:43:53.579Z,3.80
2019-06-25T15:44:59.880Z,4.22
2019-06-25T15:46:36.211Z,4.20
2019-06-25T15:47:41.764Z,3.30
2019-06-25T15:49:28.814Z,3.70
2019-06-25T15:50:33.822Z,4.40
2019-06-25T15:51:40.060Z,4.55
2019-06-25T15:52:48.802Z,3.77
2019-06-25T15:53:53.526Z,3.30
2019-06-25T15:55:14.642Z,3.50
2019-06-25T15:56:20.403Z,4.03
2019-06-25T15:57:43.433Z,3.90
2019-06-25T15:58:51.495Z,3.15
2019-06-25T16:00:01.537Z,3.67
2019-06-25T16:01:08.222Z,4.15
2019-06-25T16:02:39.317Z,3.70
2019-06-25T16:03:44.046Z,4.00
2019-06-25T16:04:51.077Z,4.42
2019-06-25T16:05:56.421Z,4.17
2019-06-25T16:07:02.245Z,4.15
2019-06-25T16:08:19.432Z,4.00
2019-06-25T16:09:27.679Z,4.75
2019-06-25T16:10:35.723Z,3.80
2019-06-25T16:11:41.463Z,3.75
2019-06-25T16:12:46.596Z,3.52
2019-06-25T16:13:53.866Z,3.80
2019-06-25T16:14:58.792Z,4.35
2019-06-25T16:16:06.481Z,5.22
2019-06-25T16:17:11.644Z,15.50
2019-06-25T16:18:17.657Z,11.20
2019-06-25T16:19:23.891Z,6.05
2019-06-25T16:20:37.165Z,7.00
2019-06-25T16:21:42.173Z,4.97
2019-06-25T16:22:51.186Z,4.75
2019-06-25T16:24:00.045Z,4.85
2019-06-25T16:25:27.447Z,3.95
2019-06-25T16:26:34.566Z,3.95
2019-06-25T16:27:43.769Z,4.08
2019-06-25T16:28:51.726Z,3.75
2019-06-25T16:29:57.335Z,3.40
2019-06-25T16:31:08.728Z,4.45
2019-06-25T16:32:46.024Z,4.03
2019-06-25T16:34:14.190Z,4.53
2019-06-25T16:35:20.974Z,3.60
2019-06-25T16:36:35.345Z,3.83
2019-06-25T16:37:48.949Z,3.90
2019-06-25T16:38:54.053Z,3.67
2019-06-25T16:40:07.042Z,4.03
2019-06-25T16:41:13.436Z,3.95
2019-06-25T16:42:27.029Z,3.70
2019-06-25T16:43:35.550Z,3.35
2019-06-25T16:45:10.061Z,4.30
2019-06-25T16:46:29.274Z,3.58
2019-06-25T16:47:39.010Z,3.65
2019-06-25T16:48:44.093Z,5.17
2019-06-25T16:49:49.741Z,4.00
2019-06-25T16:51:03.275Z,3.92
2019-06-25T16:52:08.721Z,3.92
2019-06-25T16:53:14.438Z,4.90
2019-06-25T16:54:59.513Z,4.28
2019-06-25T16:56:08.070Z,4.42
2019-06-25T16:57:20.359Z,6.10
2019-06-25T16:58:35.563Z,4.30
2019-06-25T16:59:41.296Z,4.25
2019-06-25T17:00:46.725Z,4.55
2019-06-25T17:01:52.744Z,4.70
2019-06-25T17:02:58.478Z,4.37
2019-06-25T17:04:24.987Z,6.87
2019-06-25T17:05:42.971Z,5.25
2019-06-25T17:06:48.506Z,5.10
2019-06-25T17:08:00.054Z,5.20
2019-06-25T17:09:08.989Z,5.40
2019-06-25T17:10:17.414Z,4.80
2019-06-25T17:11:23.489Z,5.40
2019-06-25T17:12:28.460Z,4.65
2019-06-25T17:13:34.394Z,5.15
2019-06-25T17:14:39.573Z,4.92
2019-06-25T17:15:46.678Z,4.60
2019-06-25T17:16:51.645Z,5.45
2019-06-25T17:18:00.331Z,4.95
2019-06-25T17:19:05.788Z,5.45
2019-06-25T17:20:12.208Z,6.00
2019-06-25T17:21:19.674Z,4.70
2019-06-25T17:22:25.875Z,4.97
2019-06-25T17:23:31.762Z,5.30
2019-06-25T17:24:37.721Z,4.72
2019-06-25T17:25:52.194Z,5.15
2019-06-25T17:26:59.255Z,6.62
2019-06-25T17:28:04.717Z,5.83
2019-06-25T17:29:15.265Z,6.05
2019-06-25T17:30:21.055Z,5.95
2019-06-25T17:31:26.977Z,5.08
2019-06-25T17:32:32.183Z,4.65
2019-06-25T17:33:37.892Z,6.55
2019-06-25T17:34:49.764Z,5.35
2019-06-25T17:35:59.931Z,5.20
2019-06-25T17:37:06.137Z,5.22
2019-06-25T17:38:12.929Z,4.72
2019-06-25T17:39:17.769Z,6.08
2019-06-25T17:40:23.240Z,5.25
2019-06-25T17:41:30.232Z,4.80
2019-06-25T17:42:36.627Z,5.35
2019-06-25T17:43:47.655Z,5.20
2019-06-25T17:44:54.232Z,5.45
2019-06-25T17:45:59.425Z,5.53
2019-06-25T17:47:12.254Z,5.45
2019-06-25T17:48:22.194Z,5.12
2019-06-25T17:49:31.101Z,5.20
2019-06-25T17:50:37.316Z,5.10
2019-06-25T17:51:43.779Z,5.97
2019-06-25T17:52:49.390Z,5.33
2019-06-25T17:53:55.130Z,4.97
2019-06-25T17:55:05.084Z,5.12
2019-06-25T17:56:13.545Z,5.70
2019-06-25T17:57:23.077Z,5.00
2019-06-25T17:59:56.920Z,4.97
2019-06-25T18:01:12.541Z,4.35
2019-06-25T18:02:19.239Z,5.08
2019-06-25T18:03:25.085Z,5.85
2019-06-25T18:04:31.474Z,6.10